LHA2306 LFMN-EDDP
Flight info
| Callsign | LHA2306 |
|---|---|
| Flight time | N/A |
| Altitude | 31000 |
| Route | BASIP Y15 ANAKI DCT ABESI DCT LOKTA DCT TEDGO DCT HAREM DCT LOHRE N746 TIKNI T279 TAMEB T955 GOXLI |
| Aircraft | A319/M-SDE1E2FGIRWYZ/S |
Departure
| Time | 2026-05-08 07:40 |
|---|---|
| Airport | Nice-Côte d'Azur Airport (LFMN) |
Arrival
| Time | N/A |
|---|---|
| Airport | Leipzig/Halle Airport (EDDP) |
| Time | Latitude | Longitude | Altitude | Speed | Heading |
|---|---|---|---|---|---|
| 2026-05-08 07:14 | 43.66476 | 7.21492 | 32 ft | 0 kts | 313° |
| 2026-05-08 07:31 | 43.66469 | 7.21503 | 31 ft | 3 kts | 313° |
| 2026-05-08 07:31 | 43.66450 | 7.21530 | 30 ft | 3 kts | 313° |
| 2026-05-08 07:32 | 43.66432 | 7.21557 | 29 ft | 3 kts | 313° |
| 2026-05-08 07:32 | 43.66425 | 7.21588 | 28 ft | 3 kts | 261° |
| 2026-05-08 07:32 | 43.66433 | 7.21610 | 28 ft | 0 kts | 225° |
| 2026-05-08 07:33 | 43.66429 | 7.21605 | 28 ft | 1 kts | 226° |
| 2026-05-08 07:33 | 43.66422 | 7.21595 | 28 ft | 1 kts | 226° |
| 2026-05-08 07:34 | 43.66413 | 7.21581 | 28 ft | 1 kts | 226° |
| 2026-05-08 07:34 | 43.66397 | 7.21559 | 29 ft | 4 kts | 224° |
| 2026-05-08 07:34 | 43.66377 | 7.21546 | 30 ft | 3 kts | 178° |
| 2026-05-08 07:34 | 43.66339 | 7.21579 | 28 ft | 10 kts | 138° |
| 2026-05-08 07:35 | 43.66256 | 7.21563 | 27 ft | 15 kts | 225° |
| 2026-05-08 07:35 | 43.66166 | 7.21439 | 25 ft | 21 kts | 224° |
| 2026-05-08 07:35 | 43.66052 | 7.21283 | 23 ft | 24 kts | 226° |
| 2026-05-08 07:35 | 43.65933 | 7.21112 | 20 ft | 25 kts | 226° |
| 2026-05-08 07:36 | 43.65805 | 7.20939 | 18 ft | 25 kts | 224° |
| 2026-05-08 07:36 | 43.65680 | 7.20770 | 18 ft | 24 kts | 224° |
| 2026-05-08 07:36 | 43.65581 | 7.20635 | 17 ft | 19 kts | 224° |
| 2026-05-08 07:36 | 43.65487 | 7.20506 | 15 ft | 17 kts | 224° |
| 2026-05-08 07:37 | 43.65400 | 7.20389 | 14 ft | 18 kts | 225° |
| 2026-05-08 07:37 | 43.65307 | 7.20296 | 12 ft | 14 kts | 176° |
| 2026-05-08 07:37 | 43.65236 | 7.20356 | 12 ft | 0 kts | 136° |
| 2026-05-08 07:37 | 43.65236 | 7.20357 | 12 ft | 0 kts | 136° |
| 2026-05-08 07:38 | 43.65207 | 7.20396 | 12 ft | 13 kts | 134° |
| 2026-05-08 07:38 | 43.65125 | 7.20508 | 12 ft | 17 kts | 136° |
| 2026-05-08 07:38 | 43.65037 | 7.20627 | 12 ft | 17 kts | 130° |
| 2026-05-08 07:38 | 43.65056 | 7.20774 | 13 ft | 15 kts | 50° |
| 2026-05-08 07:39 | 43.65071 | 7.20794 | 13 ft | 0 kts | 45° |
| 2026-05-08 07:39 | 43.65120 | 7.20860 | 15 ft | 39 kts | 43° |
| 2026-05-08 07:39 | 43.65512 | 7.21389 | 15 ft | 115 kts | 47° |
| 2026-05-08 07:39 | 43.66229 | 7.22386 | 61 ft | 170 kts | 44° |
| 2026-05-08 07:40 | 43.66974 | 7.23550 | 870 ft | 163 kts | 54° |
| 2026-05-08 07:40 | 43.67187 | 7.25070 | 1550 ft | 172 kts | 106° |
| 2026-05-08 07:40 | 43.66546 | 7.26469 | 2181 ft | 181 kts | 129° |
| 2026-05-08 07:40 | 43.65679 | 7.27823 | 2681 ft | 198 kts | 131° |
| 2026-05-08 07:41 | 43.64709 | 7.29284 | 3167 ft | 218 kts | 132° |
| 2026-05-08 07:41 | 43.63698 | 7.30929 | 3781 ft | 232 kts | 119° |
| 2026-05-08 07:41 | 43.63261 | 7.33016 | 4658 ft | 230 kts | 86° |
| 2026-05-08 07:41 | 43.63591 | 7.35145 | 5540 ft | 229 kts | 67° |
| 2026-05-08 07:42 | 43.64192 | 7.37157 | 6366 ft | 232 kts | 64° |
| 2026-05-08 07:42 | 43.64821 | 7.39190 | 7184 ft | 236 kts | 65° |
| 2026-05-08 07:42 | 43.65431 | 7.41286 | 8004 ft | 239 kts | 66° |
| 2026-05-08 07:42 | 43.66020 | 7.43427 | 8813 ft | 242 kts | 67° |
| 2026-05-08 07:43 | 43.66607 | 7.45624 | 9501 ft | 245 kts | 67° |
| 2026-05-08 07:43 | 43.67189 | 7.47837 | 9893 ft | 247 kts | 68° |
| 2026-05-08 07:43 | 43.67789 | 7.50116 | 9996 ft | 257 kts | 67° |
| 2026-05-08 07:43 | 43.68441 | 7.52551 | 9999 ft | 284 kts | 67° |
| 2026-05-08 07:44 | 43.69135 | 7.55137 | 9999 ft | 292 kts | 68° |
| 2026-05-08 07:44 | 43.69835 | 7.57766 | 10006 ft | 293 kts | 68° |
| 2026-05-08 07:44 | 43.70535 | 7.60404 | 10010 ft | 293 kts | 68° |
| 2026-05-08 07:44 | 43.71238 | 7.63060 | 10013 ft | 293 kts | 68° |
| 2026-05-08 07:45 | 43.71934 | 7.65694 | 10015 ft | 293 kts | 68° |
| 2026-05-08 07:45 | 43.72635 | 7.68337 | 10016 ft | 293 kts | 67° |
| 2026-05-08 07:45 | 43.73494 | 7.70899 | 10016 ft | 291 kts | 59° |
| 2026-05-08 07:45 | 43.74600 | 7.73203 | 10015 ft | 289 kts | 50° |
| 2026-05-08 07:46 | 43.75890 | 7.75313 | 10014 ft | 289 kts | 47° |
| 2026-05-08 07:46 | 43.77234 | 7.77392 | 10012 ft | 288 kts | 46° |
| 2026-05-08 07:46 | 43.78573 | 7.79456 | 10009 ft | 288 kts | 46° |
| 2026-05-08 07:46 | 43.79917 | 7.81543 | 10007 ft | 288 kts | 46° |
| 2026-05-08 07:47 | 43.81242 | 7.83612 | 10004 ft | 288 kts | 47° |
| 2026-05-08 07:47 | 43.82567 | 7.85688 | 10002 ft | 288 kts | 47° |
| 2026-05-08 07:47 | 43.83884 | 7.87756 | 10000 ft | 288 kts | 47° |
| 2026-05-08 07:47 | 43.85119 | 7.89699 | 9999 ft | 288 kts | 47° |
| 2026-05-08 07:48 | 43.86432 | 7.91765 | 9998 ft | 288 kts | 47° |
| 2026-05-08 07:48 | 43.87772 | 7.93875 | 9997 ft | 288 kts | 47° |
| 2026-05-08 07:48 | 43.89087 | 7.95947 | 9996 ft | 288 kts | 47° |
| 2026-05-08 07:48 | 43.90424 | 7.98052 | 10127 ft | 295 kts | 47° |
| 2026-05-08 07:49 | 43.91801 | 8.00220 | 10509 ft | 312 kts | 47° |
| 2026-05-08 07:49 | 43.93280 | 8.02550 | 10894 ft | 331 kts | 47° |
| 2026-05-08 07:49 | 43.94847 | 8.05021 | 11330 ft | 347 kts | 47° |
| 2026-05-08 07:49 | 43.96439 | 8.07540 | 12047 ft | 352 kts | 47° |
| 2026-05-08 07:50 | 43.98045 | 8.10087 | 12812 ft | 355 kts | 46° |
| 2026-05-08 07:50 | 43.99674 | 8.12672 | 13538 ft | 359 kts | 46° |
| 2026-05-08 07:50 | 44.01326 | 8.15294 | 14242 ft | 363 kts | 46° |
| 2026-05-08 07:50 | 44.02993 | 8.17941 | 14928 ft | 367 kts | 46° |
| 2026-05-08 07:51 | 44.04586 | 8.20665 | 15579 ft | 372 kts | 51° |
| 2026-05-08 07:51 | 44.05983 | 8.23749 | 16229 ft | 378 kts | 59° |
| 2026-05-08 07:51 | 44.07098 | 8.27060 | 16852 ft | 383 kts | 64° |
| 2026-05-08 07:51 | 44.08094 | 8.30479 | 17453 ft | 387 kts | 65° |
| 2026-05-08 07:52 | 44.09095 | 8.34014 | 18042 ft | 391 kts | 65° |
| 2026-05-08 07:52 | 44.10091 | 8.37531 | 18606 ft | 395 kts | 65° |
| 2026-05-08 07:52 | 44.11107 | 8.41093 | 19163 ft | 399 kts | 65° |
| 2026-05-08 07:52 | 44.12131 | 8.44670 | 19701 ft | 403 kts | 65° |
| 2026-05-08 07:53 | 44.13180 | 8.48325 | 20233 ft | 406 kts | 65° |
| 2026-05-08 07:53 | 44.14225 | 8.51967 | 20745 ft | 410 kts | 64° |
| 2026-05-08 07:53 | 44.15286 | 8.55668 | 21248 ft | 414 kts | 64° |
| 2026-05-08 07:53 | 44.16349 | 8.59383 | 21738 ft | 417 kts | 64° |
| 2026-05-08 07:54 | 44.17428 | 8.63158 | 22215 ft | 421 kts | 64° |
| 2026-05-08 07:54 | 44.18507 | 8.66731 | 22646 ft | 422 kts | 59° |
| 2026-05-08 07:54 | 44.20215 | 8.70005 | 23057 ft | 416 kts | 40° |
| 2026-05-08 07:54 | 44.22533 | 8.72306 | 23500 ft | 409 kts | 21° |
| 2026-05-08 07:55 | 44.25178 | 8.73465 | 23927 ft | 403 kts | 5° |
| 2026-05-08 07:55 | 44.27967 | 8.73942 | 24386 ft | 404 kts | 2° |
| 2026-05-08 07:55 | 44.30773 | 8.74339 | 24799 ft | 407 kts | 2° |
| 2026-05-08 07:55 | 44.33570 | 8.74736 | 25209 ft | 409 kts | 2° |
| 2026-05-08 07:56 | 44.36442 | 8.75155 | 25626 ft | 412 kts | 2° |
| 2026-05-08 07:56 | 44.39294 | 8.75584 | 26030 ft | 414 kts | 2° |
| 2026-05-08 07:56 | 44.42158 | 8.76023 | 26421 ft | 416 kts | 2° |
| 2026-05-08 07:56 | 44.45018 | 8.76466 | 26796 ft | 419 kts | 2° |
| 2026-05-08 07:57 | 44.47943 | 8.76923 | 27167 ft | 421 kts | 2° |
| 2026-05-08 07:57 | 44.50828 | 8.77376 | 27526 ft | 423 kts | 2° |
| 2026-05-08 07:57 | 44.53765 | 8.77839 | 27880 ft | 425 kts | 2° |
| 2026-05-08 07:57 | 44.56676 | 8.78299 | 28315 ft | 425 kts | 2° |
| 2026-05-08 07:58 | 44.59610 | 8.78766 | 28826 ft | 423 kts | 2° |
| 2026-05-08 07:58 | 44.62496 | 8.79225 | 29308 ft | 421 kts | 2° |
| 2026-05-08 07:58 | 44.65404 | 8.79688 | 29718 ft | 422 kts | 2° |
| 2026-05-08 07:58 | 44.68308 | 8.80148 | 30059 ft | 423 kts | 2° |
| 2026-05-08 07:59 | 44.71244 | 8.80614 | 30393 ft | 425 kts | 1° |
| 2026-05-08 07:59 | 44.74163 | 8.81079 | 30724 ft | 426 kts | 1° |
| 2026-05-08 07:59 | 44.77130 | 8.81551 | 30974 ft | 427 kts | 1° |
| 2026-05-08 08:00 | 44.83028 | 8.82492 | 30996 ft | 428 kts | 1° |
| 2026-05-08 08:00 | 44.88932 | 8.83437 | 30999 ft | 428 kts | 1° |
| 2026-05-08 08:01 | 44.94830 | 8.84383 | 31002 ft | 428 kts | 1° |
| 2026-05-08 08:01 | 45.00728 | 8.85331 | 31006 ft | 429 kts | 1° |
| 2026-05-08 08:02 | 45.06653 | 8.86285 | 31017 ft | 431 kts | 1° |
| 2026-05-08 08:02 | 45.12618 | 8.87247 | 31038 ft | 432 kts | 1° |
| 2026-05-08 08:03 | 45.18583 | 8.88213 | 31060 ft | 432 kts | 1° |
| 2026-05-08 08:03 | 45.24541 | 8.89178 | 31072 ft | 432 kts | 1° |
| 2026-05-08 08:04 | 45.30499 | 8.90146 | 31076 ft | 432 kts | 1° |
| 2026-05-08 08:04 | 45.36426 | 8.91112 | 31077 ft | 431 kts | 1° |
| 2026-05-08 08:05 | 45.42408 | 8.92087 | 31077 ft | 430 kts | 1° |
| 2026-05-08 08:05 | 45.48318 | 8.93053 | 31077 ft | 431 kts | 1° |
| 2026-05-08 08:06 | 45.54278 | 8.94029 | 31077 ft | 430 kts | 1° |
| 2026-05-08 08:06 | 45.60206 | 8.95002 | 31077 ft | 430 kts | 1° |
| 2026-05-08 08:07 | 45.66110 | 8.95974 | 31077 ft | 429 kts | 1° |
| 2026-05-08 08:07 | 45.72055 | 8.96954 | 31077 ft | 429 kts | 1° |
| 2026-05-08 08:08 | 45.77959 | 8.97930 | 31077 ft | 429 kts | 1° |
| 2026-05-08 08:08 | 45.83844 | 8.98905 | 31077 ft | 428 kts | 1° |
| 2026-05-08 08:09 | 45.89739 | 8.99883 | 31077 ft | 428 kts | 1° |
| 2026-05-08 08:09 | 45.95654 | 9.00868 | 31077 ft | 428 kts | 1° |
| 2026-05-08 08:10 | 46.01549 | 9.01852 | 31077 ft | 427 kts | 1° |
| 2026-05-08 08:10 | 46.07423 | 9.02837 | 31077 ft | 427 kts | 1° |
| 2026-05-08 08:11 | 46.13303 | 9.03821 | 31078 ft | 427 kts | 1° |
| 2026-05-08 08:11 | 46.19173 | 9.04496 | 31078 ft | 424 kts | 357° |
| 2026-05-08 08:12 | 46.24661 | 9.04870 | 31077 ft | 423 kts | 357° |
| 2026-05-08 08:12 | 46.30551 | 9.05260 | 31077 ft | 424 kts | 357° |
| 2026-05-08 08:13 | 46.36406 | 9.05653 | 31077 ft | 424 kts | 357° |
| 2026-05-08 08:13 | 46.42287 | 9.06050 | 31077 ft | 423 kts | 357° |
| 2026-05-08 08:14 | 46.48123 | 9.06447 | 31077 ft | 423 kts | 357° |
| 2026-05-08 08:14 | 46.53971 | 9.06844 | 31077 ft | 423 kts | 357° |
| 2026-05-08 08:15 | 46.59845 | 9.07245 | 31077 ft | 423 kts | 357° |
| 2026-05-08 08:15 | 46.65699 | 9.07645 | 31077 ft | 423 kts | 357° |
| 2026-05-08 08:16 | 46.71542 | 9.08046 | 31077 ft | 423 kts | 357° |
| 2026-05-08 08:16 | 46.77421 | 9.08448 | 31077 ft | 422 kts | 357° |
| 2026-05-08 08:17 | 46.83236 | 9.08848 | 31077 ft | 422 kts | 357° |
| 2026-05-08 08:17 | 46.89074 | 9.09250 | 31077 ft | 422 kts | 356° |
| 2026-05-08 08:18 | 46.94904 | 9.09663 | 31078 ft | 420 kts | 356° |
| 2026-05-08 08:18 | 47.00704 | 9.10073 | 31078 ft | 417 kts | 355° |
| 2026-05-08 08:19 | 47.06491 | 9.10475 | 31078 ft | 415 kts | 354° |
| 2026-05-08 08:19 | 47.11973 | 9.10847 | 31079 ft | 414 kts | 354° |
| 2026-05-08 08:20 | 47.17741 | 9.11244 | 31077 ft | 414 kts | 354° |
| 2026-05-08 08:20 | 47.23472 | 9.11641 | 31077 ft | 413 kts | 354° |
| 2026-05-08 08:21 | 47.29207 | 9.12042 | 31077 ft | 413 kts | 354° |
| 2026-05-08 08:21 | 47.34924 | 9.12443 | 31077 ft | 413 kts | 354° |
| 2026-05-08 08:22 | 47.40645 | 9.12845 | 31077 ft | 413 kts | 354° |
| 2026-05-08 08:22 | 47.46351 | 9.13246 | 31077 ft | 413 kts | 354° |
| 2026-05-08 08:23 | 47.52070 | 9.13650 | 31077 ft | 413 kts | 354° |
| 2026-05-08 08:23 | 47.57785 | 9.14055 | 31077 ft | 413 kts | 354° |
| 2026-05-08 08:24 | 47.63423 | 9.14455 | 31077 ft | 413 kts | 354° |
| 2026-05-08 08:24 | 47.69142 | 9.14861 | 31077 ft | 413 kts | 354° |
| 2026-05-08 08:25 | 47.74881 | 9.15270 | 31077 ft | 413 kts | 354° |
| 2026-05-08 08:25 | 47.80584 | 9.15678 | 31077 ft | 413 kts | 354° |
| 2026-05-08 08:26 | 47.86303 | 9.16087 | 31077 ft | 413 kts | 354° |
| 2026-05-08 08:26 | 47.92030 | 9.16498 | 31077 ft | 413 kts | 354° |
| 2026-05-08 08:27 | 47.97738 | 9.16909 | 31077 ft | 413 kts | 354° |
| 2026-05-08 08:27 | 48.03462 | 9.17322 | 31077 ft | 413 kts | 354° |
| 2026-05-08 08:28 | 48.09175 | 9.17736 | 31080 ft | 413 kts | 354° |
| 2026-05-08 08:28 | 48.14909 | 9.18151 | 31087 ft | 413 kts | 355° |
| 2026-05-08 08:29 | 48.20635 | 9.18926 | 31093 ft | 416 kts | 358° |
| 2026-05-08 08:29 | 48.26396 | 9.19900 | 31097 ft | 416 kts | 358° |
| 2026-05-08 08:30 | 48.32113 | 9.20869 | 31100 ft | 416 kts | 358° |
| 2026-05-08 08:30 | 48.40703 | 9.22325 | 31104 ft | 415 kts | 358° |
| 2026-05-08 08:31 | 48.46431 | 9.23297 | 31105 ft | 415 kts | 358° |
| 2026-05-08 08:31 | 48.52122 | 9.24264 | 31105 ft | 416 kts | 358° |
| 2026-05-08 08:32 | 48.57849 | 9.25240 | 31105 ft | 415 kts | 358° |
| 2026-05-08 08:32 | 48.63541 | 9.26195 | 31105 ft | 415 kts | 357° |
| 2026-05-08 08:33 | 48.69278 | 9.27067 | 31105 ft | 415 kts | 357° |
| 2026-05-08 08:33 | 48.74976 | 9.27928 | 31105 ft | 414 kts | 357° |
| 2026-05-08 08:34 | 48.80686 | 9.28799 | 31105 ft | 414 kts | 357° |
| 2026-05-08 08:34 | 48.86440 | 9.29681 | 31105 ft | 415 kts | 357° |
| 2026-05-08 08:35 | 48.92137 | 9.30557 | 31105 ft | 415 kts | 357° |
| 2026-05-08 08:35 | 48.97753 | 9.31424 | 31105 ft | 415 kts | 357° |
| 2026-05-08 08:36 | 49.03234 | 9.32278 | 31104 ft | 417 kts | 356° |
| 2026-05-08 08:36 | 49.09027 | 9.33178 | 31103 ft | 421 kts | 355° |
| 2026-05-08 08:37 | 49.14854 | 9.34081 | 31104 ft | 423 kts | 355° |
| 2026-05-08 08:37 | 49.20686 | 9.34983 | 31105 ft | 422 kts | 355° |
| 2026-05-08 08:38 | 49.26540 | 9.35893 | 31105 ft | 422 kts | 355° |
| 2026-05-08 08:38 | 49.32370 | 9.36804 | 31105 ft | 422 kts | 355° |
| 2026-05-08 08:39 | 49.38181 | 9.37715 | 31105 ft | 422 kts | 355° |
| 2026-05-08 08:39 | 49.44011 | 9.38631 | 31105 ft | 422 kts | 355° |
| 2026-05-08 08:40 | 49.49864 | 9.39553 | 31105 ft | 422 kts | 355° |
| 2026-05-08 08:40 | 49.55671 | 9.40471 | 31105 ft | 422 kts | 355° |
| 2026-05-08 08:41 | 49.61543 | 9.41400 | 31105 ft | 423 kts | 355° |
| 2026-05-08 08:41 | 49.67271 | 9.42309 | 31105 ft | 423 kts | 355° |
| 2026-05-08 08:42 | 49.73085 | 9.43236 | 31105 ft | 422 kts | 355° |
| 2026-05-08 08:42 | 49.78916 | 9.44169 | 31105 ft | 422 kts | 355° |
| 2026-05-08 08:43 | 49.84767 | 9.45106 | 31107 ft | 422 kts | 355° |
| 2026-05-08 08:43 | 49.90597 | 9.46043 | 31112 ft | 422 kts | 355° |
| 2026-05-08 08:44 | 49.96390 | 9.46977 | 31119 ft | 422 kts | 355° |
| 2026-05-08 08:44 | 50.02144 | 9.48181 | 31126 ft | 431 kts | 1° |
| 2026-05-08 08:45 | 50.07645 | 9.50923 | 31130 ft | 448 kts | 12° |
| 2026-05-08 08:45 | 50.12672 | 9.55264 | 31132 ft | 463 kts | 23° |
| 2026-05-08 08:46 | 50.17871 | 9.61086 | 31133 ft | 459 kts | 25° |
| 2026-05-08 08:46 | 50.23014 | 9.66959 | 31129 ft | 459 kts | 26° |
| 2026-05-08 08:47 | 50.28210 | 9.72851 | 31132 ft | 459 kts | 26° |
| 2026-05-08 08:47 | 50.33353 | 9.78680 | 31138 ft | 459 kts | 26° |
| 2026-05-08 08:48 | 50.38491 | 9.84576 | 31145 ft | 462 kts | 28° |
| 2026-05-08 08:48 | 50.43359 | 9.91275 | 31152 ft | 471 kts | 35° |
| 2026-05-08 08:49 | 50.47886 | 9.98719 | 31153 ft | 472 kts | 37° |
| 2026-05-08 08:49 | 50.52374 | 10.06258 | 31153 ft | 471 kts | 37° |
| 2026-05-08 08:50 | 50.56838 | 10.13732 | 31154 ft | 470 kts | 37° |
| 2026-05-08 08:50 | 50.61332 | 10.21252 | 31157 ft | 471 kts | 37° |
| 2026-05-08 08:51 | 50.65577 | 10.29119 | 31158 ft | 481 kts | 46° |
| 2026-05-08 08:51 | 50.69026 | 10.38314 | 31160 ft | 489 kts | 53° |
| 2026-05-08 08:52 | 50.72217 | 10.47816 | 31160 ft | 487 kts | 54° |
| 2026-05-08 08:52 | 50.75404 | 10.57229 | 31159 ft | 487 kts | 53° |
| 2026-05-08 08:53 | 50.78320 | 10.65788 | 31158 ft | 487 kts | 54° |
| 2026-05-08 08:53 | 50.81570 | 10.75182 | 31159 ft | 485 kts | 52° |
| 2026-05-08 08:54 | 50.84940 | 10.84261 | 31161 ft | 484 kts | 51° |
| 2026-05-08 08:54 | 50.88340 | 10.93387 | 31161 ft | 481 kts | 51° |
| 2026-05-08 08:55 | 50.91735 | 11.02550 | 31160 ft | 481 kts | 51° |
| 2026-05-08 08:55 | 50.95100 | 11.11674 | 31158 ft | 483 kts | 51° |
| 2026-05-08 08:56 | 50.98488 | 11.20888 | 31157 ft | 488 kts | 51° |
| 2026-05-08 08:56 | 51.01926 | 11.30292 | 31157 ft | 492 kts | 51° |
| 2026-05-08 08:57 | 51.05347 | 11.39685 | 31157 ft | 495 kts | 51° |
| 2026-05-08 08:57 | 51.08798 | 11.49217 | 31159 ft | 495 kts | 51° |
| 2026-05-08 08:58 | 51.12334 | 11.58445 | 31161 ft | 488 kts | 45° |
| 2026-05-08 08:58 | 51.15747 | 11.65814 | 31162 ft | 485 kts | 44° |